Terminal Aerodrome Forecast
Issued by NWS

Home | Current Version | Previous Version | Text Only | Print | Product List | Glossary On
Versions: 1 2 3 4 5 6 7 8 9 10 11 12 13 14 15 16
000
FTUS44 KCRP 241121
TAFALI
TAF
KALI 241121Z 2412/2512 15005KT 5SM BR SCT015 BKN022
      TEMPO 2412/2415 4SM BR BKN015 OVC022
     FM241500 15008KT P6SM BKN025
     FM241800 11010KT P6SM VCTS BKN035CB
     FM242200 10012G18KT P6SM SCT040 BKN150
     FM250200 12006KT P6SM SCT025 BKN250
     FM250800 12004KT 5SM BR BKN015 BKN150=

USA.gov is the U.S. government's official web portal to all federal, state and local government web resources and services.